sensor_id;sensor_type;location;lat;lon;timestamp;P1;durP1;ratioP1;P2;durP2;ratioP2
52057;SDS011;38063;53.210;6.504;2024-03-06T00:00:31;17.05;;;8.30;;
52057;SDS011;38063;53.210;6.504;2024-03-06T00:02:58;17.88;;;7.53;;
52057;SDS011;38063;53.210;6.504;2024-03-06T00:05:24;15.95;;;7.95;;
52057;SDS011;38063;53.210;6.504;2024-03-06T00:07:49;17.92;;;8.60;;
52057;SDS011;38063;53.210;6.504;2024-03-06T00:10:15;15.48;;;8.02;;
52057;SDS011;38063;53.210;6.504;2024-03-06T00:12:40;15.45;;;7.85;;
52057;SDS011;38063;53.210;6.504;2024-03-06T00:15:06;16.70;;;8.50;;
52057;SDS011;38063;53.210;6.504;2024-03-06T00:17:32;14.63;;;7.93;;
52057;SDS011;38063;53.210;6.504;2024-03-06T00:19:58;16.02;;;8.00;;
52057;SDS011;38063;53.210;6.504;2024-03-06T00:22:23;18.38;;;8.15;;
52057;SDS011;38063;53.210;6.504;2024-03-06T00:24:49;15.80;;;8.30;;
52057;SDS011;38063;53.210;6.504;2024-03-06T00:27:15;16.85;;;8.65;;
52057;SDS011;38063;53.210;6.504;2024-03-06T00:29:40;13.63;;;8.20;;
52057;SDS011;38063;53.210;6.504;2024-03-06T00:32:06;13.93;;;8.02;;
52057;SDS011;38063;53.210;6.504;2024-03-06T00:34:32;17.45;;;8.27;;
52057;SDS011;38063;53.210;6.504;2024-03-06T00:36:58;14.05;;;7.72;;
52057;SDS011;38063;53.210;6.504;2024-03-06T00:39:23;17.10;;;8.20;;
52057;SDS011;38063;53.210;6.504;2024-03-06T00:41:49;13.77;;;7.90;;
52057;SDS011;38063;53.210;6.504;2024-03-06T00:44:15;11.50;;;7.40;;
52057;SDS011;38063;53.210;6.504;2024-03-06T00:46:42;12.73;;;6.93;;
52057;SDS011;38063;53.210;6.504;2024-03-06T00:49:07;14.23;;;7.72;;
52057;SDS011;38063;53.210;6.504;2024-03-06T00:51:33;13.18;;;7.80;;
52057;SDS011;38063;53.210;6.504;2024-03-06T00:54:02;20.08;;;7.65;;
52057;SDS011;38063;53.210;6.504;2024-03-06T00:56:27;17.20;;;8.05;;
52057;SDS011;38063;53.210;6.504;2024-03-06T00:58:53;13.90;;;8.38;;
52057;SDS011;38063;53.210;6.504;2024-03-06T01:01:19;15.55;;;7.95;;
52057;SDS011;38063;53.210;6.504;2024-03-06T01:03:44;17.55;;;7.68;;
52057;SDS011;38063;53.210;6.504;2024-03-06T01:06:10;12.80;;;7.57;;
52057;SDS011;38063;53.210;6.504;2024-03-06T01:08:36;15.63;;;7.65;;
52057;SDS011;38063;53.210;6.504;2024-03-06T01:11:01;14.07;;;7.72;;
52057;SDS011;38063;53.210;6.504;2024-03-06T01:13:29;16.00;;;7.63;;
52057;SDS011;38063;53.210;6.504;2024-03-06T01:15:55;12.35;;;7.18;;
52057;SDS011;38063;53.210;6.504;2024-03-06T01:18:21;14.90;;;7.60;;
52057;SDS011;38063;53.210;6.504;2024-03-06T01:20:46;13.93;;;7.88;;
52057;SDS011;38063;53.210;6.504;2024-03-06T01:23:12;14.27;;;7.28;;
52057;SDS011;38063;53.210;6.504;2024-03-06T01:25:38;12.45;;;7.25;;
52057;SDS011;38063;53.210;6.504;2024-03-06T01:28:03;15.57;;;8.30;;
52057;SDS011;38063;53.210;6.504;2024-03-06T01:30:29;13.80;;;7.35;;
52057;SDS011;38063;53.210;6.504;2024-03-06T01:32:55;14.05;;;7.15;;
52057;SDS011;38063;53.210;6.504;2024-03-06T01:35:21;15.43;;;7.10;;
52057;SDS011;38063;53.210;6.504;2024-03-06T01:37:46;15.02;;;6.88;;
52057;SDS011;38063;53.210;6.504;2024-03-06T01:40:12;13.00;;;7.57;;
52057;SDS011;38063;53.210;6.504;2024-03-06T01:42:38;15.32;;;7.82;;
52057;SDS011;38063;53.210;6.504;2024-03-06T01:45:03;14.80;;;7.40;;
52057;SDS011;38063;53.210;6.504;2024-03-06T01:47:30;17.15;;;8.15;;
52057;SDS011;38063;53.210;6.504;2024-03-06T01:49:55;16.50;;;7.85;;
52057;SDS011;38063;53.210;6.504;2024-03-06T01:52:21;18.13;;;7.15;;
52057;SDS011;38063;53.210;6.504;2024-03-06T01:54:47;15.75;;;7.95;;
52057;SDS011;38063;53.210;6.504;2024-03-06T01:57:15;13.85;;;7.45;;
52057;SDS011;38063;53.210;6.504;2024-03-06T01:59:42;14.70;;;7.60;;
52057;SDS011;38063;53.210;6.504;2024-03-06T02:02:08;12.80;;;7.35;;
52057;SDS011;38063;53.210;6.504;2024-03-06T02:04:36;15.85;;;7.93;;
52057;SDS011;38063;53.210;6.504;2024-03-06T02:07:08;15.88;;;7.88;;
52057;SDS011;38063;53.210;6.504;2024-03-06T02:09:37;13.60;;;7.60;;
52057;SDS011;38063;53.210;6.504;2024-03-06T02:12:05;17.33;;;9.13;;
52057;SDS011;38063;53.210;6.504;2024-03-06T02:14:33;14.27;;;7.80;;
52057;SDS011;38063;53.210;6.504;2024-03-06T02:17:00;14.07;;;7.45;;
52057;SDS011;38063;53.210;6.504;2024-03-06T02:19:37;14.18;;;7.65;;
52057;SDS011;38063;53.210;6.504;2024-03-06T02:22:03;14.20;;;7.85;;
52057;SDS011;38063;53.210;6.504;2024-03-06T02:24:29;14.55;;;7.75;;
52057;SDS011;38063;53.210;6.504;2024-03-06T02:26:55;14.00;;;7.88;;
52057;SDS011;38063;53.210;6.504;2024-03-06T02:29:23;17.05;;;8.30;;
52057;SDS011;38063;53.210;6.504;2024-03-06T02:31:48;14.68;;;7.97;;
52057;SDS011;38063;53.210;6.504;2024-03-06T02:34:14;11.95;;;7.85;;
52057;SDS011;38063;53.210;6.504;2024-03-06T02:36:40;15.77;;;7.85;;
52057;SDS011;38063;53.210;6.504;2024-03-06T02:39:05;15.50;;;8.30;;
52057;SDS011;38063;53.210;6.504;2024-03-06T02:41:36;15.80;;;8.38;;
52057;SDS011;38063;53.210;6.504;2024-03-06T02:44:02;17.88;;;8.82;;
52057;SDS011;38063;53.210;6.504;2024-03-06T02:46:28;18.00;;;8.68;;
52057;SDS011;38063;53.210;6.504;2024-03-06T02:48:54;20.40;;;8.90;;
52057;SDS011;38063;53.210;6.504;2024-03-06T02:51:20;15.55;;;8.23;;
52057;SDS011;38063;53.210;6.504;2024-03-06T02:53:46;20.90;;;10.00;;
52057;SDS011;38063;53.210;6.504;2024-03-06T02:56:17;16.15;;;8.18;;
52057;SDS011;38063;53.210;6.504;2024-03-06T02:58:43;17.10;;;8.77;;
52057;SDS011;38063;53.210;6.504;2024-03-06T03:01:09;16.05;;;8.38;;
52057;SDS011;38063;53.210;6.504;2024-03-06T03:03:35;19.40;;;8.48;;
52057;SDS011;38063;53.210;6.504;2024-03-06T03:06:01;20.13;;;9.63;;
52057;SDS011;38063;53.210;6.504;2024-03-06T03:08:27;14.38;;;7.80;;
52057;SDS011;38063;53.210;6.504;2024-03-06T03:10:53;20.45;;;9.68;;
52057;SDS011;38063;53.210;6.504;2024-03-06T03:13:18;18.23;;;8.88;;
52057;SDS011;38063;53.210;6.504;2024-03-06T03:15:44;17.45;;;9.43;;
52057;SDS011;38063;53.210;6.504;2024-03-06T03:18:10;15.18;;;8.95;;
52057;SDS011;38063;53.210;6.504;2024-03-06T03:20:35;16.15;;;8.52;;
52057;SDS011;38063;53.210;6.504;2024-03-06T03:23:01;18.58;;;8.70;;
52057;SDS011;38063;53.210;6.504;2024-03-06T03:25:27;18.92;;;9.07;;
52057;SDS011;38063;53.210;6.504;2024-03-06T03:27:53;20.75;;;9.50;;
52057;SDS011;38063;53.210;6.504;2024-03-06T03:30:18;18.75;;;9.23;;
52057;SDS011;38063;53.210;6.504;2024-03-06T03:32:50;18.40;;;10.05;;
52057;SDS011;38063;53.210;6.504;2024-03-06T03:35:15;17.77;;;9.60;;
52057;SDS011;38063;53.210;6.504;2024-03-06T03:37:42;15.45;;;8.73;;
52057;SDS011;38063;53.210;6.504;2024-03-06T03:40:08;18.88;;;9.05;;
52057;SDS011;38063;53.210;6.504;2024-03-06T03:42:37;16.10;;;8.98;;
52057;SDS011;38063;53.210;6.504;2024-03-06T03:45:03;19.92;;;9.77;;
52057;SDS011;38063;53.210;6.504;2024-03-06T03:47:29;18.95;;;9.40;;
52057;SDS011;38063;53.210;6.504;2024-03-06T03:49:55;17.42;;;9.02;;
52057;SDS011;38063;53.210;6.504;2024-03-06T03:52:21;20.25;;;9.65;;
52057;SDS011;38063;53.210;6.504;2024-03-06T03:54:47;17.35;;;9.88;;
52057;SDS011;38063;53.210;6.504;2024-03-06T03:57:13;18.83;;;9.38;;
52057;SDS011;38063;53.210;6.504;2024-03-06T03:59:39;16.73;;;10.05;;
52057;SDS011;38063;53.210;6.504;2024-03-06T04:02:06;18.45;;;9.27;;
52057;SDS011;38063;53.210;6.504;2024-03-06T04:04:32;18.50;;;10.35;;
52057;SDS011;38063;53.210;6.504;2024-03-06T04:06:59;20.02;;;9.35;;
52057;SDS011;38063;53.210;6.504;2024-03-06T04:09:27;21.45;;;10.23;;
52057;SDS011;38063;53.210;6.504;2024-03-06T04:11:53;17.40;;;8.93;;
52057;SDS011;38063;53.210;6.504;2024-03-06T04:14:18;17.60;;;8.80;;
52057;SDS011;38063;53.210;6.504;2024-03-06T04:16:47;19.17;;;9.25;;
52057;SDS011;38063;53.210;6.504;2024-03-06T04:19:13;19.25;;;10.23;;
52057;SDS011;38063;53.210;6.504;2024-03-06T04:21:42;18.25;;;10.30;;
52057;SDS011;38063;53.210;6.504;2024-03-06T04:24:08;17.20;;;9.60;;
52057;SDS011;38063;53.210;6.504;2024-03-06T04:26:34;18.38;;;10.05;;
52057;SDS011;38063;53.210;6.504;2024-03-06T04:29:00;18.80;;;10.32;;
52057;SDS011;38063;53.210;6.504;2024-03-06T04:31:25;20.10;;;9.68;;
52057;SDS011;38063;53.210;6.504;2024-03-06T04:33:51;18.38;;;10.13;;
52057;SDS011;38063;53.210;6.504;2024-03-06T04:36:17;19.02;;;10.15;;
52057;SDS011;38063;53.210;6.504;2024-03-06T04:38:43;17.27;;;9.90;;
52057;SDS011;38063;53.210;6.504;2024-03-06T04:41:09;21.38;;;10.30;;
52057;SDS011;38063;53.210;6.504;2024-03-06T04:43:35;15.02;;;9.05;;
52057;SDS011;38063;53.210;6.504;2024-03-06T04:46:01;19.85;;;10.55;;
52057;SDS011;38063;53.210;6.504;2024-03-06T04:48:27;15.73;;;9.88;;
52057;SDS011;38063;53.210;6.504;2024-03-06T04:50:53;19.08;;;10.68;;
52057;SDS011;38063;53.210;6.504;2024-03-06T04:53:18;20.83;;;10.45;;
52057;SDS011;38063;53.210;6.504;2024-03-06T04:55:47;20.75;;;11.48;;
52057;SDS011;38063;53.210;6.504;2024-03-06T04:58:13;22.05;;;11.43;;
52057;SDS011;38063;53.210;6.504;2024-03-06T05:00:39;21.80;;;10.27;;
52057;SDS011;38063;53.210;6.504;2024-03-06T05:03:04;22.73;;;11.63;;
52057;SDS011;38063;53.210;6.504;2024-03-06T05:05:30;19.95;;;11.45;;
52057;SDS011;38063;53.210;6.504;2024-03-06T05:07:57;22.42;;;10.70;;
52057;SDS011;38063;53.210;6.504;2024-03-06T05:10:23;21.40;;;10.50;;
52057;SDS011;38063;53.210;6.504;2024-03-06T05:12:49;22.52;;;11.02;;
52057;SDS011;38063;53.210;6.504;2024-03-06T05:15:15;21.38;;;10.75;;
52057;SDS011;38063;53.210;6.504;2024-03-06T05:17:41;21.65;;;11.40;;
52057;SDS011;38063;53.210;6.504;2024-03-06T05:20:07;20.50;;;11.13;;
52057;SDS011;38063;53.210;6.504;2024-03-06T05:22:33;18.92;;;11.27;;
52057;SDS011;38063;53.210;6.504;2024-03-06T05:24:59;20.52;;;10.90;;
52057;SDS011;38063;53.210;6.504;2024-03-06T05:27:25;19.23;;;11.55;;
52057;SDS011;38063;53.210;6.504;2024-03-06T05:29:51;18.23;;;10.68;;
52057;SDS011;38063;53.210;6.504;2024-03-06T05:32:17;18.05;;;10.48;;
52057;SDS011;38063;53.210;6.504;2024-03-06T05:34:43;19.60;;;11.85;;
52057;SDS011;38063;53.210;6.504;2024-03-06T05:37:09;22.55;;;10.88;;
52057;SDS011;38063;53.210;6.504;2024-03-06T05:39:35;20.60;;;11.13;;
52057;SDS011;38063;53.210;6.504;2024-03-06T05:42:02;19.10;;;10.98;;
52057;SDS011;38063;53.210;6.504;2024-03-06T05:44:29;21.70;;;11.45;;
52057;SDS011;38063;53.210;6.504;2024-03-06T05:46:58;21.17;;;11.20;;
52057;SDS011;38063;53.210;6.504;2024-03-06T05:49:26;20.85;;;11.55;;
52057;SDS011;38063;53.210;6.504;2024-03-06T05:51:52;23.23;;;10.48;;
52057;SDS011;38063;53.210;6.504;2024-03-06T05:54:19;20.33;;;11.43;;
52057;SDS011;38063;53.210;6.504;2024-03-06T05:56:47;20.50;;;10.90;;
52057;SDS011;38063;53.210;6.504;2024-03-06T05:59:17;18.92;;;11.05;;
52057;SDS011;38063;53.210;6.504;2024-03-06T06:01:43;21.50;;;11.18;;
52057;SDS011;38063;53.210;6.504;2024-03-06T06:04:09;20.55;;;10.80;;
52057;SDS011;38063;53.210;6.504;2024-03-06T06:06:36;18.92;;;10.82;;
52057;SDS011;38063;53.210;6.504;2024-03-06T06:09:03;20.30;;;10.38;;
52057;SDS011;38063;53.210;6.504;2024-03-06T06:11:32;22.58;;;11.75;;
52057;SDS011;38063;53.210;6.504;2024-03-06T06:14:01;18.27;;;10.55;;
52057;SDS011;38063;53.210;6.504;2024-03-06T06:16:27;21.50;;;10.90;;
52057;SDS011;38063;53.210;6.504;2024-03-06T06:18:59;24.90;;;11.98;;
52057;SDS011;38063;53.210;6.504;2024-03-06T06:21:24;22.98;;;11.75;;
52057;SDS011;38063;53.210;6.504;2024-03-06T06:23:50;20.17;;;11.80;;
52057;SDS011;38063;53.210;6.504;2024-03-06T06:26:16;23.50;;;11.60;;
52057;SDS011;38063;53.210;6.504;2024-03-06T06:28:42;21.67;;;12.02;;
52057;SDS011;38063;53.210;6.504;2024-03-06T06:31:08;18.70;;;11.48;;
52057;SDS011;38063;53.210;6.504;2024-03-06T06:33:33;22.85;;;11.68;;
52057;SDS011;38063;53.210;6.504;2024-03-06T06:35:59;20.42;;;11.73;;
52057;SDS011;38063;53.210;6.504;2024-03-06T06:38:25;26.55;;;13.45;;
52057;SDS011;38063;53.210;6.504;2024-03-06T06:40:50;26.52;;;12.25;;
52057;SDS011;38063;53.210;6.504;2024-03-06T06:43:17;21.67;;;11.38;;
52057;SDS011;38063;53.210;6.504;2024-03-06T06:45:43;21.35;;;11.27;;
52057;SDS011;38063;53.210;6.504;2024-03-06T06:48:08;19.63;;;11.15;;
52057;SDS011;38063;53.210;6.504;2024-03-06T06:50:34;22.67;;;12.00;;
52057;SDS011;38063;53.210;6.504;2024-03-06T06:53:01;20.63;;;12.05;;
52057;SDS011;38063;53.210;6.504;2024-03-06T06:55:26;23.17;;;11.45;;
52057;SDS011;38063;53.210;6.504;2024-03-06T06:57:52;19.80;;;11.07;;
52057;SDS011;38063;53.210;6.504;2024-03-06T07:00:18;20.45;;;11.18;;
52057;SDS011;38063;53.210;6.504;2024-03-06T07:02:46;19.75;;;12.10;;
52057;SDS011;38063;53.210;6.504;2024-03-06T07:05:12;23.13;;;11.45;;
52057;SDS011;38063;53.210;6.504;2024-03-06T07:07:38;21.85;;;11.88;;
52057;SDS011;38063;53.210;6.504;2024-03-06T07:10:04;20.38;;;11.32;;
52057;SDS011;38063;53.210;6.504;2024-03-06T07:12:31;22.08;;;11.48;;
52057;SDS011;38063;53.210;6.504;2024-03-06T07:14:57;20.27;;;11.68;;
52057;SDS011;38063;53.210;6.504;2024-03-06T07:17:23;22.08;;;11.18;;
52057;SDS011;38063;53.210;6.504;2024-03-06T07:19:49;21.67;;;11.68;;
52057;SDS011;38063;53.210;6.504;2024-03-06T07:22:15;20.63;;;12.02;;
52057;SDS011;38063;53.210;6.504;2024-03-06T07:24:41;17.95;;;11.45;;
52057;SDS011;38063;53.210;6.504;2024-03-06T07:27:07;20.65;;;10.88;;
52057;SDS011;38063;53.210;6.504;2024-03-06T07:29:36;22.13;;;12.95;;
52057;SDS011;38063;53.210;6.504;2024-03-06T07:32:02;19.17;;;11.43;;
52057;SDS011;38063;53.210;6.504;2024-03-06T07:34:28;22.45;;;11.63;;
52057;SDS011;38063;53.210;6.504;2024-03-06T07:36:54;19.25;;;11.65;;
52057;SDS011;38063;53.210;6.504;2024-03-06T07:39:20;24.05;;;12.65;;
52057;SDS011;38063;53.210;6.504;2024-03-06T07:41:46;19.88;;;11.60;;
52057;SDS011;38063;53.210;6.504;2024-03-06T07:44:11;24.55;;;12.05;;
52057;SDS011;38063;53.210;6.504;2024-03-06T07:46:38;22.95;;;11.95;;
52057;SDS011;38063;53.210;6.504;2024-03-06T07:49:03;23.70;;;12.13;;
52057;SDS011;38063;53.210;6.504;2024-03-06T07:51:30;21.00;;;12.57;;
52057;SDS011;38063;53.210;6.504;2024-03-06T07:53:56;20.80;;;11.57;;
52057;SDS011;38063;53.210;6.504;2024-03-06T07:56:22;24.10;;;11.68;;
52057;SDS011;38063;53.210;6.504;2024-03-06T07:58:49;21.00;;;12.43;;
52057;SDS011;38063;53.210;6.504;2024-03-06T08:01:15;19.92;;;10.80;;
52057;SDS011;38063;53.210;6.504;2024-03-06T08:03:44;18.73;;;11.23;;
52057;SDS011;38063;53.210;6.504;2024-03-06T08:06:09;21.90;;;11.73;;
52057;SDS011;38063;53.210;6.504;2024-03-06T08:08:35;25.05;;;12.38;;
52057;SDS011;38063;53.210;6.504;2024-03-06T08:11:02;23.65;;;11.50;;
52057;SDS011;38063;53.210;6.504;2024-03-06T08:13:28;20.45;;;12.50;;
52057;SDS011;38063;53.210;6.504;2024-03-06T08:15:54;26.42;;;12.85;;
52057;SDS011;38063;53.210;6.504;2024-03-06T08:18:20;22.27;;;12.32;;
52057;SDS011;38063;53.210;6.504;2024-03-06T08:20:45;23.50;;;11.93;;
52057;SDS011;38063;53.210;6.504;2024-03-06T08:23:11;23.92;;;12.30;;
52057;SDS011;38063;53.210;6.504;2024-03-06T08:25:37;19.17;;;11.13;;
52057;SDS011;38063;53.210;6.504;2024-03-06T08:28:02;24.10;;;11.82;;
52057;SDS011;38063;53.210;6.504;2024-03-06T08:30:28;24.45;;;12.32;;
52057;SDS011;38063;53.210;6.504;2024-03-06T08:32:55;24.75;;;12.18;;
52057;SDS011;38063;53.210;6.504;2024-03-06T08:35:21;24.92;;;12.80;;
52057;SDS011;38063;53.210;6.504;2024-03-06T08:37:49;23.20;;;12.88;;
52057;SDS011;38063;53.210;6.504;2024-03-06T08:40:15;21.55;;;12.18;;
52057;SDS011;38063;53.210;6.504;2024-03-06T08:42:48;25.33;;;12.65;;
52057;SDS011;38063;53.210;6.504;2024-03-06T08:45:14;22.35;;;12.45;;
52057;SDS011;38063;53.210;6.504;2024-03-06T08:47:41;23.35;;;12.82;;
52057;SDS011;38063;53.210;6.504;2024-03-06T08:50:08;21.00;;;12.02;;
52057;SDS011;38063;53.210;6.504;2024-03-06T08:52:34;25.45;;;13.38;;
52057;SDS011;38063;53.210;6.504;2024-03-06T08:55:00;20.75;;;12.23;;
52057;SDS011;38063;53.210;6.504;2024-03-06T08:57:26;24.80;;;11.88;;
52057;SDS011;38063;53.210;6.504;2024-03-06T08:59:56;24.63;;;12.95;;
52057;SDS011;38063;53.210;6.504;2024-03-06T09:02:22;23.02;;;13.32;;
52057;SDS011;38063;53.210;6.504;2024-03-06T09:04:48;27.83;;;12.93;;
52057;SDS011;38063;53.210;6.504;2024-03-06T09:07:16;22.58;;;13.80;;
52057;SDS011;38063;53.210;6.504;2024-03-06T09:09:43;25.40;;;11.88;;
52057;SDS011;38063;53.210;6.504;2024-03-06T09:12:09;22.90;;;12.98;;
52057;SDS011;38063;53.210;6.504;2024-03-06T09:14:36;25.35;;;12.68;;
52057;SDS011;38063;53.210;6.504;2024-03-06T09:17:02;22.13;;;12.80;;
52057;SDS011;38063;53.210;6.504;2024-03-06T09:19:28;21.35;;;12.43;;
52057;SDS011;38063;53.210;6.504;2024-03-06T09:21:56;25.23;;;13.20;;
52057;SDS011;38063;53.210;6.504;2024-03-06T09:24:22;23.42;;;13.32;;
52057;SDS011;38063;53.210;6.504;2024-03-06T09:26:49;24.02;;;12.50;;
52057;SDS011;38063;53.210;6.504;2024-03-06T09:29:15;27.58;;;13.20;;
52057;SDS011;38063;53.210;6.504;2024-03-06T09:31:41;23.95;;;13.50;;
52057;SDS011;38063;53.210;6.504;2024-03-06T09:34:07;28.23;;;13.35;;
52057;SDS011;38063;53.210;6.504;2024-03-06T09:36:36;24.15;;;13.60;;
52057;SDS011;38063;53.210;6.504;2024-03-06T09:39:02;25.13;;;13.38;;
52057;SDS011;38063;53.210;6.504;2024-03-06T09:41:30;29.88;;;13.50;;
52057;SDS011;38063;53.210;6.504;2024-03-06T09:43:56;26.23;;;13.10;;
52057;SDS011;38063;53.210;6.504;2024-03-06T09:46:23;24.63;;;13.60;;
52057;SDS011;38063;53.210;6.504;2024-03-06T09:48:50;25.33;;;14.07;;
52057;SDS011;38063;53.210;6.504;2024-03-06T09:51:16;24.65;;;13.35;;
52057;SDS011;38063;53.210;6.504;2024-03-06T09:53:42;23.55;;;13.48;;
52057;SDS011;38063;53.210;6.504;2024-03-06T09:56:14;25.27;;;13.82;;
52057;SDS011;38063;53.210;6.504;2024-03-06T09:58:40;24.73;;;14.48;;
52057;SDS011;38063;53.210;6.504;2024-03-06T10:01:06;27.20;;;14.45;;
52057;SDS011;38063;53.210;6.504;2024-03-06T10:03:36;25.55;;;14.27;;
52057;SDS011;38063;53.210;6.504;2024-03-06T10:06:02;24.80;;;13.73;;
52057;SDS011;38063;53.210;6.504;2024-03-06T10:08:28;25.33;;;14.27;;
52057;SDS011;38063;53.210;6.504;2024-03-06T10:10:53;28.73;;;14.60;;
52057;SDS011;38063;53.210;6.504;2024-03-06T10:13:22;26.88;;;14.60;;
52057;SDS011;38063;53.210;6.504;2024-03-06T10:15:59;23.50;;;14.43;;
52057;SDS011;38063;53.210;6.504;2024-03-06T10:18:26;25.13;;;13.15;;
52057;SDS011;38063;53.210;6.504;2024-03-06T10:20:53;26.88;;;15.30;;
52057;SDS011;38063;53.210;6.504;2024-03-06T10:23:19;28.67;;;13.45;;
52057;SDS011;38063;53.210;6.504;2024-03-06T10:25:46;26.90;;;14.23;;
52057;SDS011;38063;53.210;6.504;2024-03-06T10:28:17;26.90;;;13.85;;
52057;SDS011;38063;53.210;6.504;2024-03-06T10:30:48;23.52;;;13.48;;
52057;SDS011;38063;53.210;6.504;2024-03-06T10:33:15;23.02;;;13.57;;
52057;SDS011;38063;53.210;6.504;2024-03-06T10:35:44;27.00;;;13.77;;
52057;SDS011;38063;53.210;6.504;2024-03-06T10:38:11;26.83;;;14.77;;
52057;SDS011;38063;53.210;6.504;2024-03-06T10:40:38;27.33;;;14.45;;
52057;SDS011;38063;53.210;6.504;2024-03-06T10:43:05;24.25;;;13.95;;
52057;SDS011;38063;53.210;6.504;2024-03-06T10:48:11;25.33;;;14.35;;
52057;SDS011;38063;53.210;6.504;2024-03-06T10:50:39;29.08;;;15.02;;
52057;SDS011;38063;53.210;6.504;2024-03-06T10:53:09;29.92;;;15.07;;
52057;SDS011;38063;53.210;6.504;2024-03-06T10:55:35;27.15;;;15.63;;
52057;SDS011;38063;53.210;6.504;2024-03-06T10:58:02;27.58;;;14.82;;
52057;SDS011;38063;53.210;6.504;2024-03-06T11:00:34;30.40;;;14.93;;
52057;SDS011;38063;53.210;6.504;2024-03-06T11:03:05;23.88;;;13.65;;
52057;SDS011;38063;53.210;6.504;2024-03-06T11:05:40;27.27;;;14.10;;
52057;SDS011;38063;53.210;6.504;2024-03-06T11:08:13;27.70;;;15.05;;
52057;SDS011;38063;53.210;6.504;2024-03-06T11:10:41;32.42;;;15.68;;
52057;SDS011;38063;53.210;6.504;2024-03-06T11:15:45;28.58;;;14.45;;
52057;SDS011;38063;53.210;6.504;2024-03-06T11:23:27;27.08;;;14.93;;
52057;SDS011;38063;53.210;6.504;2024-03-06T11:28:27;30.92;;;14.73;;
52057;SDS011;38063;53.210;6.504;2024-03-06T11:31:08;30.13;;;14.90;;
52057;SDS011;38063;53.210;6.504;2024-03-06T11:33:46;26.75;;;15.05;;
52057;SDS011;38063;53.210;6.504;2024-03-06T11:36:13;29.40;;;15.55;;
52057;SDS011;38063;53.210;6.504;2024-03-06T11:38:52;28.20;;;14.70;;
52057;SDS011;38063;53.210;6.504;2024-03-06T11:43:56;27.30;;;14.65;;
52057;SDS011;38063;53.210;6.504;2024-03-06T11:49:16;29.60;;;14.88;;
52057;SDS011;38063;53.210;6.504;2024-03-06T11:51:46;28.15;;;16.25;;
52057;SDS011;38063;53.210;6.504;2024-03-06T11:54:12;29.90;;;17.42;;
52057;SDS011;38063;53.210;6.504;2024-03-06T11:56:42;34.17;;;17.95;;
52057;SDS011;38063;53.210;6.504;2024-03-06T11:59:10;30.85;;;17.20;;
52057;SDS011;38063;53.210;6.504;2024-03-06T12:01:36;30.67;;;16.85;;
52057;SDS011;38063;53.210;6.504;2024-03-06T12:04:03;28.50;;;16.83;;
52057;SDS011;38063;53.210;6.504;2024-03-06T12:06:32;29.65;;;16.45;;
52057;SDS011;38063;53.210;6.504;2024-03-06T12:08:59;35.50;;;17.52;;
52057;SDS011;38063;53.210;6.504;2024-03-06T12:11:24;32.40;;;16.60;;
52057;SDS011;38063;53.210;6.504;2024-03-06T12:13:51;29.95;;;17.35;;
52057;SDS011;38063;53.210;6.504;2024-03-06T12:16:16;33.33;;;16.27;;
52057;SDS011;38063;53.210;6.504;2024-03-06T12:18:42;32.60;;;17.42;;
52057;SDS011;38063;53.210;6.504;2024-03-06T12:21:10;32.95;;;17.08;;
52057;SDS011;38063;53.210;6.504;2024-03-06T12:23:36;32.70;;;16.60;;
52057;SDS011;38063;53.210;6.504;2024-03-06T12:26:02;30.45;;;16.33;;
52057;SDS011;38063;53.210;6.504;2024-03-06T12:28:29;33.30;;;16.48;;
52057;SDS011;38063;53.210;6.504;2024-03-06T12:30:55;34.10;;;18.45;;
52057;SDS011;38063;53.210;6.504;2024-03-06T12:33:21;34.22;;;17.98;;
52057;SDS011;38063;53.210;6.504;2024-03-06T12:35:46;29.50;;;16.98;;
52057;SDS011;38063;53.210;6.504;2024-03-06T12:38:16;34.10;;;17.45;;
52057;SDS011;38063;53.210;6.504;2024-03-06T12:40:42;29.60;;;16.92;;
52057;SDS011;38063;53.210;6.504;2024-03-06T12:43:08;30.60;;;16.70;;
52057;SDS011;38063;53.210;6.504;2024-03-06T12:45:35;36.55;;;16.92;;
52057;SDS011;38063;53.210;6.504;2024-03-06T12:48:02;37.17;;;17.38;;
52057;SDS011;38063;53.210;6.504;2024-03-06T12:50:29;34.90;;;18.00;;
52057;SDS011;38063;53.210;6.504;2024-03-06T12:52:55;30.15;;;17.50;;
52057;SDS011;38063;53.210;6.504;2024-03-06T12:55:21;31.70;;;18.27;;
52057;SDS011;38063;53.210;6.504;2024-03-06T12:57:47;34.28;;;18.35;;
52057;SDS011;38063;53.210;6.504;2024-03-06T13:00:12;29.48;;;16.60;;
52057;SDS011;38063;53.210;6.504;2024-03-06T13:02:45;28.67;;;17.58;;
52057;SDS011;38063;53.210;6.504;2024-03-06T13:05:11;34.25;;;19.70;;
52057;SDS011;38063;53.210;6.504;2024-03-06T13:07:38;33.17;;;18.13;;
52057;SDS011;38063;53.210;6.504;2024-03-06T13:10:04;30.98;;;18.23;;
52057;SDS011;38063;53.210;6.504;2024-03-06T13:12:30;32.80;;;17.85;;
52057;SDS011;38063;53.210;6.504;2024-03-06T13:14:56;33.20;;;19.08;;
52057;SDS011;38063;53.210;6.504;2024-03-06T13:17:22;31.42;;;17.55;;
52057;SDS011;38063;53.210;6.504;2024-03-06T13:19:48;33.92;;;19.67;;
52057;SDS011;38063;53.210;6.504;2024-03-06T13:22:14;35.13;;;18.50;;
52057;SDS011;38063;53.210;6.504;2024-03-06T13:24:39;33.58;;;18.15;;
52057;SDS011;38063;53.210;6.504;2024-03-06T13:27:05;33.95;;;18.20;;
52057;SDS011;38063;53.210;6.504;2024-03-06T13:29:31;35.58;;;17.85;;
52057;SDS011;38063;53.210;6.504;2024-03-06T13:31:56;30.20;;;17.77;;
52057;SDS011;38063;53.210;6.504;2024-03-06T13:34:22;27.65;;;17.10;;
52057;SDS011;38063;53.210;6.504;2024-03-06T13:36:48;30.63;;;18.10;;
52057;SDS011;38063;53.210;6.504;2024-03-06T13:39:13;25.40;;;16.38;;
52057;SDS011;38063;53.210;6.504;2024-03-06T13:41:39;30.67;;;17.83;;
52057;SDS011;38063;53.210;6.504;2024-03-06T13:44:05;31.17;;;17.02;;
52057;SDS011;38063;53.210;6.504;2024-03-06T13:46:33;29.98;;;17.63;;
52057;SDS011;38063;53.210;6.504;2024-03-06T13:48:59;29.98;;;17.98;;
52057;SDS011;38063;53.210;6.504;2024-03-06T13:51:25;30.23;;;18.27;;
52057;SDS011;38063;53.210;6.504;2024-03-06T13:53:51;31.65;;;17.73;;
52057;SDS011;38063;53.210;6.504;2024-03-06T13:56:17;27.70;;;17.20;;
52057;SDS011;38063;53.210;6.504;2024-03-06T13:58:43;32.10;;;18.33;;
52057;SDS011;38063;53.210;6.504;2024-03-06T14:01:09;35.10;;;19.25;;
52057;SDS011;38063;53.210;6.504;2024-03-06T14:03:35;30.95;;;18.13;;
52057;SDS011;38063;53.210;6.504;2024-03-06T14:06:03;29.02;;;17.90;;
52057;SDS011;38063;53.210;6.504;2024-03-06T14:08:29;32.97;;;17.88;;
52057;SDS011;38063;53.210;6.504;2024-03-06T14:10:54;28.75;;;17.30;;
52057;SDS011;38063;53.210;6.504;2024-03-06T14:13:20;28.55;;;17.90;;
52057;SDS011;38063;53.210;6.504;2024-03-06T14:15:46;29.55;;;17.48;;
52057;SDS011;38063;53.210;6.504;2024-03-06T14:18:13;31.30;;;18.00;;
52057;SDS011;38063;53.210;6.504;2024-03-06T14:20:39;27.23;;;16.92;;
52057;SDS011;38063;53.210;6.504;2024-03-06T14:23:04;29.45;;;17.70;;
52057;SDS011;38063;53.210;6.504;2024-03-06T14:25:30;30.55;;;16.85;;
52057;SDS011;38063;53.210;6.504;2024-03-06T14:28:00;34.05;;;18.75;;
52057;SDS011;38063;53.210;6.504;2024-03-06T14:30:26;27.73;;;17.08;;
52057;SDS011;38063;53.210;6.504;2024-03-06T14:32:52;30.50;;;18.25;;
52057;SDS011;38063;53.210;6.504;2024-03-06T14:35:18;29.08;;;17.30;;
52057;SDS011;38063;53.210;6.504;2024-03-06T14:37:44;28.75;;;17.65;;
52057;SDS011;38063;53.210;6.504;2024-03-06T14:40:10;29.15;;;17.35;;